Time;durP1;ratioP1;P1;durP2;ratioP2;P2;SDS_P1;SDS_P2;PMS_P1;PMS_P2;Temp;Humidity;BMP_temperature;BMP_pressure;BME280_temperature;BME280_humidity;BME280_pressure;Samples;Min_cycle;Max_cycle;Signal;HPM_P1;HPM_P2
2024/01/15 00:00:12;;;;;;;1999.90;999.90;;;;;;;1.46;100.00;100251.53;10316755;28;20047;-70
2024/01/15 00:05:14;;;;;;;1999.90;999.90;;;;;;;1.17;100.00;100247.16;10333811;28;20129;-70
2024/01/15 00:10:17;;;;;;;1999.90;999.90;;;;;;;1.08;100.00;100235.38;10332668;28;20125;-70
2024/01/15 00:15:19;;;;;;;1999.90;999.90;;;;;;;1.05;100.00;100232.88;10332308;28;20156;-70
2024/01/15 00:20:21;;;;;;;1999.90;999.90;;;;;;;0.96;100.00;100225.41;10336078;28;20418;-70
2024/01/15 00:25:24;;;;;;;1999.90;999.90;;;;;;;1.06;100.00;100228.56;10341804;28;20073;-70
2024/01/15 00:30:26;;;;;;;1999.90;999.90;;;;;;;0.97;100.00;100232.22;10341461;28;20050;-70
2024/01/15 00:35:29;;;;;;;1999.90;999.90;;;;;;;1.01;100.00;100220.97;10340215;28;20050;-70
2024/01/15 00:40:31;;;;;;;1999.90;999.90;;;;;;;0.96;100.00;100224.53;10341150;28;20052;-70
2024/01/15 00:45:33;;;;;;;1999.90;999.90;;;;;;;0.88;100.00;100209.28;10340168;28;20577;-70
2024/01/15 00:50:36;;;;;;;1999.90;999.90;;;;;;;0.80;100.00;100203.50;10339976;28;20089;-70
2024/01/15 00:55:38;;;;;;;1999.90;999.90;;;;;;;0.83;100.00;100200.84;10340676;28;20050;-70
2024/01/15 01:00:41;;;;;;;1999.90;999.90;;;;;;;0.86;100.00;100187.88;10339309;28;20054;-70
2024/01/15 01:05:44;;;;;;;1999.90;999.90;;;;;;;0.87;100.00;100189.53;10339001;28;20460;-70
2024/01/15 01:10:47;;;;;;;1999.90;999.90;;;;;;;0.88;100.00;100174.03;10339057;28;20054;-70
2024/01/15 01:15:49;;;;;;;1999.90;999.90;;;;;;;0.79;100.00;100176.88;10339717;28;20129;-70
2024/01/15 01:20:52;;;;;;;1999.90;999.90;;;;;;;0.83;100.00;100175.91;10338399;28;20108;-70
2024/01/15 01:25:54;;;;;;;1999.90;999.90;;;;;;;0.79;100.00;100165.72;10339394;28;20046;-70
2024/01/15 01:30:56;;;;;;;1999.90;999.90;;;;;;;0.79;100.00;100169.16;10338881;28;20149;-70
2024/01/15 01:35:59;;;;;;;1999.90;999.90;;;;;;;0.73;100.00;100177.03;10339071;28;20057;-70
2024/01/15 01:41:01;;;;;;;1999.90;999.90;;;;;;;0.67;100.00;100183.22;10337645;28;20056;-70
2024/01/15 01:46:04;;;;;;;1999.90;999.90;;;;;;;0.76;100.00;100182.13;10338601;28;20501;-70
2024/01/15 01:51:06;;;;;;;1999.90;999.90;;;;;;;0.88;100.00;100186.09;10337400;28;20050;-70
2024/01/15 01:56:10;;;;;;;1999.90;999.90;;;;;;;0.89;100.00;100185.19;10336997;28;20450;-70
2024/01/15 02:01:13;;;;;;;1999.90;999.90;;;;;;;0.76;100.00;100176.97;10320928;28;20410;-70
2024/01/15 02:06:15;;;;;;;1999.90;999.90;;;;;;;0.68;100.00;100184.88;10338254;28;20544;-70
2024/01/15 02:11:18;;;;;;;1999.90;999.90;;;;;;;0.70;100.00;100182.28;10337011;28;20530;-70
2024/01/15 02:16:20;;;;;;;1999.90;999.90;;;;;;;0.54;100.00;100172.38;10337322;28;20478;-70
2024/01/15 02:21:23;;;;;;;1999.90;999.90;;;;;;;0.60;100.00;100175.69;10337142;28;20054;-69
2024/01/15 02:26:25;;;;;;;1999.90;999.90;;;;;;;0.65;100.00;100172.06;10336000;28;20051;-70
2024/01/15 02:31:28;;;;;;;1999.90;999.90;;;;;;;0.48;100.00;100177.69;10335746;28;20061;-69
2024/01/15 02:36:31;;;;;;;1999.90;999.90;;;;;;;0.58;100.00;100175.72;10336847;28;20053;-69
2024/01/15 02:41:33;;;;;;;1999.90;999.90;;;;;;;0.50;100.00;100177.63;10335998;28;20057;-70
2024/01/15 02:46:35;;;;;;;1999.90;999.90;;;;;;;0.57;100.00;100174.00;10336358;28;20050;-70
2024/01/15 02:51:38;;;;;;;1999.90;999.90;;;;;;;0.58;100.00;100185.19;10336105;28;20046;-69
2024/01/15 02:56:40;;;;;;;1999.90;999.90;;;;;;;0.57;100.00;100174.00;10336214;28;20065;-69
2024/01/15 03:01:43;;;;;;;1999.90;999.90;;;;;;;0.58;100.00;100173.13;10335792;28;20061;-69
2024/01/15 03:06:45;;;;;;;1999.90;999.90;;;;;;;0.68;100.00;100182.31;10335914;28;20108;-69
2024/01/15 03:11:48;;;;;;;1999.90;999.90;;;;;;;0.67;100.00;100172.91;10335485;28;20082;-69
2024/01/15 03:16:50;;;;;;;1999.90;999.90;;;;;;;0.83;100.00;100172.50;10335052;28;20379;-69
2024/01/15 03:21:53;;;;;;;1999.90;999.90;;;;;;;0.87;100.00;100174.91;10333748;28;20050;-69
2024/01/15 03:26:56;;;;;;;1999.90;999.90;;;;;;;0.84;100.00;100167.28;10333710;28;20114;-69
2024/01/15 03:31:58;;;;;;;1999.90;999.90;;;;;;;0.87;100.00;100181.81;10334599;28;20446;-69
2024/01/15 03:37:00;;;;;;;1999.90;999.90;;;;;;;0.72;100.00;100173.63;10334406;28;20502;-69
2024/01/15 03:42:03;;;;;;;1999.90;999.90;;;;;;;0.77;100.00;100164.91;10334199;28;20057;-69
2024/01/15 03:47:05;;;;;;;1999.90;999.90;;;;;;;0.74;100.00;100178.75;10334484;28;20054;-69
2024/01/15 03:52:07;;;;;;;1999.90;999.90;;;;;;;0.78;100.00;100153.72;10333970;28;20050;-70
2024/01/15 03:57:10;;;;;;;1999.90;999.90;;;;;;;0.76;100.00;100140.88;10334191;28;20493;-70
2024/01/15 04:02:12;;;;;;;1999.90;999.90;;;;;;;0.61;100.00;100134.41;10333983;28;20100;-70
2024/01/15 04:07:15;;;;;;;1999.90;999.90;;;;;;;0.59;100.00;100123.31;10332493;28;20486;-69
2024/01/15 04:12:17;;;;;;;1999.90;999.90;;;;;;;0.64;100.00;100112.84;10333032;28;20050;-69
2024/01/15 04:17:21;;;;;;;1999.90;999.90;;;;;;;0.61;100.00;100115.53;10333524;28;20051;-69
2024/01/15 04:22:23;;;;;;;1999.90;999.90;;;;;;;0.55;100.00;100122.56;10333697;28;20054;-69
2024/01/15 04:27:26;;;;;;;1999.90;999.90;;;;;;;0.55;100.00;100116.53;10332494;28;20412;-68
2024/01/15 04:32:28;;;;;;;1999.90;999.90;;;;;;;0.50;100.00;100108.09;10333258;28;20100;-68
2024/01/15 04:37:31;;;;;;;1999.90;999.90;;;;;;;0.43;100.00;100099.69;10333407;28;20089;-68
2024/01/15 04:42:33;;;;;;;1999.90;999.90;;;;;;;0.40;100.00;100098.91;10333195;28;20050;-68
2024/01/15 04:47:36;;;;;;;1999.90;999.90;;;;;;;0.39;100.00;100116.13;10332114;28;20129;-68
2024/01/15 04:52:39;;;;;;;1999.90;999.90;;;;;;;0.36;100.00;100108.47;10332574;28;20093;-68
2024/01/15 04:57:41;;;;;;;1999.90;999.90;;;;;;;0.51;100.00;100096.91;10332965;28;20060;-68
2024/01/15 05:02:44;;;;;;;1999.90;999.90;;;;;;;0.36;100.00;100117.03;10332896;28;20050;-68
2024/01/15 05:07:46;;;;;;;1999.90;999.90;;;;;;;0.43;100.00;100099.69;10337261;28;20050;-68
2024/01/15 05:12:48;;;;;;;1999.90;999.90;;;;;;;0.40;100.00;100104.06;10340314;28;20046;-68
2024/01/15 05:17:51;;;;;;;1999.90;999.90;;;;;;;0.36;100.00;100086.13;10338581;28;20050;-68
2024/01/15 05:22:53;;;;;;;1999.90;999.90;;;;;;;0.42;100.00;100079.13;10338777;28;20129;-68
2024/01/15 05:27:56;;;;;;;1999.90;999.90;;;;;;;0.34;100.00;100081.91;10339503;28;20050;-68
2024/01/15 05:33:00;;;;;;;1999.90;999.90;;;;;;;0.35;100.00;100083.59;10337904;28;20476;-68
2024/01/15 05:38:02;;;;;;;1999.90;999.90;;;;;;;0.39;100.00;100076.63;10339530;28;20058;-67
2024/01/15 05:43:05;;;;;;;1999.90;999.90;;;;;;;0.46;100.00;100076.41;10338765;28;20046;-68
2024/01/15 05:48:07;;;;;;;1999.90;999.90;;;;;;;0.50;100.00;100082.34;10338816;28;20050;-68
2024/01/15 05:53:10;;;;;;;1999.90;999.90;;;;;;;0.61;100.00;100064.03;10338296;28;20058;-68
2024/01/15 05:58:12;;;;;;;1999.90;999.90;;;;;;;0.61;100.00;100066.59;10338739;28;20077;-68
2024/01/15 06:03:14;;;;;;;1999.90;999.90;;;;;;;0.60;100.00;100075.19;10338057;28;20113;-68
2024/01/15 06:08:17;;;;;;;1999.90;999.90;;;;;;;0.65;100.00;100081.91;10336784;28;20053;-68
2024/01/15 06:13:19;;;;;;;1999.90;999.90;;;;;;;0.74;100.00;100084.25;10338276;28;20050;-68
2024/01/15 06:18:22;;;;;;;1999.90;999.90;;;;;;;0.79;100.00;100076.38;10336493;28;20427;-68
2024/01/15 06:23:24;;;;;;;1999.90;999.90;;;;;;;0.83;100.00;100067.66;10337211;28;20046;-68
2024/01/15 06:28:26;;;;;;;1999.90;999.90;;;;;;;0.82;100.00;100063.38;10337281;28;20054;-68
2024/01/15 06:33:29;;;;;;;1999.90;999.90;;;;;;;0.93;100.00;100066.50;10336857;28;20050;-68
2024/01/15 06:38:31;;;;;;;1999.90;999.90;;;;;;;0.74;100.00;100071.34;10335667;28;20050;-68
2024/01/15 06:43:34;;;;;;;1999.90;999.90;;;;;;;0.79;100.00;100076.38;10319294;28;20478;-68
2024/01/15 06:48:36;;;;;;;1999.90;999.90;;;;;;;0.76;100.00;100083.34;10336251;28;20058;-68
2024/01/15 06:53:39;;;;;;;1999.90;999.90;;;;;;;0.85;100.00;100083.91;10335815;28;20572;-68
2024/01/15 06:58:41;;;;;;;1999.90;999.90;;;;;;;0.91;100.00;100078.59;10334691;28;20085;-68
2024/01/15 07:03:44;;;;;;;1999.90;999.90;;;;;;;0.93;100.00;100078.56;10335788;28;20056;-68
2024/01/15 07:08:46;;;;;;;1999.90;999.90;;;;;;;0.95;100.00;100081.94;10335576;28;20058;-68
2024/01/15 07:13:49;;;;;;;1999.90;999.90;;;;;;;0.68;100.00;100099.03;10334288;28;20077;-68
2024/01/15 07:18:51;;;;;;;1999.90;999.90;;;;;;;0.68;100.00;100093.88;10333951;28;20054;-68
2024/01/15 07:23:53;;;;;;;1999.90;999.90;;;;;;;0.45;100.00;100079.88;10335284;28;20058;-68
2024/01/15 07:28:56;;;;;;;1999.90;999.90;;;;;;;0.58;100.00;100085.53;10334451;28;20125;-68
2024/01/15 07:34:00;;;;;;;1999.90;999.90;;;;;;;0.61;100.00;100092.34;10334579;28;20042;-68
2024/01/15 07:39:02;;;;;;;1999.90;999.90;;;;;;;0.62;100.00;100074.25;10334682;28;20054;-68
2024/01/15 07:44:05;;;;;;;1999.90;999.90;;;;;;;0.55;100.00;100085.63;10334354;28;20081;-68
2024/01/15 07:49:07;;;;;;;1999.90;999.90;;;;;;;0.43;100.00;100075.66;10333007;28;20051;-68
2024/01/15 07:54:11;;;;;;;1999.90;999.90;;;;;;;0.59;100.00;100070.91;10316883;28;20413;-68
2024/01/15 07:59:14;;;;;;;1999.90;999.90;;;;;;;0.66;100.00;100060.41;10333024;28;20046;-68
2024/01/15 08:04:16;;;;;;;1999.90;999.90;;;;;;;0.65;100.00;100076.75;10333966;28;20062;-68
2024/01/15 08:09:18;;;;;;;1999.90;999.90;;;;;;;0.49;100.00;100114.16;10334598;28;20133;-67
2024/01/15 08:14:21;;;;;;;1999.90;999.90;;;;;;;0.31;100.00;100125.78;10333839;28;20073;-67
2024/01/15 08:19:23;;;;;;;1999.90;999.90;;;;;;;0.32;100.00;100101.69;10333588;28;20534;-67
2024/01/15 08:24:26;;;;;;;1999.90;999.90;;;;;;;0.64;100.00;100089.66;10332326;28;20405;-67
2024/01/15 08:29:32;;;;;;;1999.90;999.90;;;;;;;0.48;100.00;100082.38;10332229;28;20505;-67
2024/01/15 08:34:35;;;;;;;1999.90;999.90;;;;;;;0.57;100.00;100089.00;10333274;28;20130;-67
2024/01/15 08:39:38;;;;;;;1999.90;999.90;;;;;;;0.54;100.00;100089.94;10332165;28;20057;-67
2024/01/15 08:44:43;;;;;;;1999.90;999.90;;;;;;;0.64;100.00;100098.28;10341023;28;20105;-67
2024/01/15 08:49:46;;;;;;;1999.90;999.90;;;;;;;0.82;100.00;100093.47;10340933;28;20486;-67
2024/01/15 08:54:48;;;;;;;1999.90;999.90;;;;;;;0.84;100.00;100087.41;10340759;28;20113;-67
2024/01/15 08:59:51;;;;;;;1999.90;999.90;;;;;;;0.79;100.00;100080.66;10340718;28;20444;-67
2024/01/15 09:04:55;;;;;;;1999.90;999.90;;;;;;;0.72;100.00;100078.28;10340448;28;20046;-67
2024/01/15 09:09:59;;;;;;;1999.90;999.90;;;;;;;0.62;100.00;100099.19;10348192;22;20448;-69
2024/01/15 09:15:04;;;;;;;1999.90;999.90;;;;;;;0.48;100.00;100087.53;10338995;28;20101;-69
2024/01/15 09:20:07;;;;;;;1999.90;999.90;;;;;;;0.75;100.00;100092.81;10339739;28;20062;-69
2024/01/15 09:25:10;;;;;;;1999.90;999.90;;;;;;;0.65;100.00;100102.50;10322685;28;20050;-69
2024/01/15 09:30:13;;;;;;;1999.90;999.90;;;;;;;0.80;100.00;100108.97;10339412;28;20050;-69
2024/01/15 09:35:15;;;;;;;1999.90;999.90;;;;;;;0.87;100.00;100107.06;10339029;28;20528;-69
2024/01/15 09:40:18;;;;;;;1999.90;999.90;;;;;;;0.91;100.00;100100.97;10339041;28;20409;-69
2024/01/15 09:45:20;;;;;;;1999.90;999.90;;;;;;;1.16;100.00;100095.94;10337664;28;20050;-69
2024/01/15 09:50:23;;;;;;;1999.90;999.90;;;;;;;0.72;100.00;100101.47;10321742;28;20073;-69
2024/01/15 09:55:25;;;;;;;1999.90;999.90;;;;;;;1.28;100.00;100102.47;10338210;28;20052;-69
2024/01/15 10:00:28;;;;;;;1999.90;999.90;;;;;;;2.22;100.00;100113.22;10337007;28;20457;-69
2024/01/15 10:05:31;;;;;;;1999.90;999.90;;;;;;;1.38;100.00;100113.31;10336968;28;20081;-70
2024/01/15 10:10:33;;;;;;;1999.90;999.90;;;;;;;1.00;100.00;100102.41;10336570;28;20085;-69
2024/01/15 10:15:38;;;;;;;1999.90;999.90;;;;;;;1.39;100.00;100102.13;10336322;28;20461;-69
2024/01/15 10:20:42;;;;;;;1999.90;999.90;;;;;;;1.65;100.00;100098.75;10336730;28;20053;-69
2024/01/15 10:25:44;;;;;;;1999.90;999.90;;;;;;;1.71;100.00;100090.78;10337194;28;20477;-69
2024/01/15 10:30:47;;;;;;;1999.90;999.90;;;;;;;1.69;100.00;100096.91;10337075;28;20073;-69
2024/01/15 10:35:49;;;;;;;1999.90;999.90;;;;;;;1.37;100.00;100102.16;10335934;28;20062;-69
2024/01/15 10:40:53;;;;;;;1999.90;999.90;;;;;;;1.06;100.00;100086.75;10335584;28;20056;-69
2024/01/15 10:45:55;;;;;;;1999.90;999.90;;;;;;;1.28;100.00;100090.41;10335572;28;20046;-69
2024/01/15 10:50:58;;;;;;;1999.90;999.90;;;;;;;1.45;100.00;100091.63;10335245;28;20077;-70
2024/01/15 10:56:01;;;;;;;1999.90;999.90;;;;;;;1.38;100.00;100084.94;10336076;28;20054;-69
2024/01/15 11:01:04;;;;;;;1999.90;999.90;;;;;;;1.25;100.00;100095.66;10318708;28;20507;-70
2024/01/15 11:06:20;;;;;;;1999.90;999.90;;;;;;;1.30;100.00;100098.94;10334166;28;20054;-70
2024/01/15 11:11:23;;;;;;;1999.90;999.90;;;;;;;1.81;100.00;100086.19;10318242;28;20137;-69
2024/01/15 11:17:01;;;;;;;1999.90;999.90;;;;;;;2.46;100.00;100091.75;10335432;28;20053;-69
2024/01/15 11:22:05;;;;;;;1999.90;999.90;;;;;;;2.85;100.00;100093.81;10333982;28;20051;-69
2024/01/15 11:27:08;;;;;;;1999.90;999.90;;;;;;;2.11;100.00;100094.66;10335418;28;20482;-69
2024/01/15 11:32:11;;;;;;;1999.90;999.90;;;;;;;2.67;100.00;100093.56;10334978;28;20061;-69
2024/01/15 11:37:13;;;;;;;1999.90;999.90;;;;;;;2.44;100.00;100102.16;10334751;28;20046;-69
2024/01/15 11:42:16;;;;;;;1999.90;999.90;;;;;;;2.30;100.00;100089.69;10334396;28;20085;-69
2024/01/15 11:47:41;;;;;;;1999.90;999.90;;;;;;;2.13;100.00;100104.94;10334623;28;20043;-69
2024/01/15 11:52:51;;;;;;;1999.90;999.90;;;;;;;2.28;100.00;100111.31;10333242;28;20078;-69
2024/01/15 11:57:54;;;;;;;1999.90;999.90;;;;;;;1.99;100.00;100106.22;10333098;28;20049;-69
2024/01/15 12:02:59;;;;;;;1999.90;999.90;;;;;;;1.91;100.00;100105.63;10332798;28;20046;-69
2024/01/15 12:08:02;;;;;;;1999.90;999.90;;;;;;;1.78;100.00;100101.75;10332685;28;20062;-69
2024/01/15 12:13:12;;;;;;;1999.90;999.90;;;;;;;1.82;100.00;100111.09;10334220;28;20109;-69
2024/01/15 12:18:15;;;;;;;1999.90;999.90;;;;;;;1.78;100.00;100109.50;10339894;28;20050;-69
2024/01/15 12:23:18;;;;;;;1999.90;999.90;;;;;;;2.05;100.00;100110.34;10341950;28;20077;-69
2024/01/15 12:28:21;;;;;;;1999.90;999.90;;;;;;;1.97;100.00;100120.09;10342169;28;20084;-69
2024/01/15 12:33:23;;;;;;;1999.90;999.90;;;;;;;1.87;100.00;100119.53;10341623;28;20101;-69
2024/01/15 12:38:28;;;;;;;1999.90;999.90;;;;;;;1.97;100.00;100123.50;10340171;28;20508;-69
2024/01/15 12:43:30;;;;;;;1999.90;999.90;;;;;;;1.58;100.00;100133.34;10341391;28;20050;-69
2024/01/15 12:48:32;;;;;;;1999.90;999.90;;;;;;;1.82;100.00;100130.00;10341036;28;20052;-69
2024/01/15 12:53:35;;;;;;;1999.90;999.90;;;;;;;1.66;100.00;100146.84;10339819;28;20081;-69
2024/01/15 12:58:37;;;;;;;1999.90;999.90;;;;;;;1.62;100.00;100138.38;10340825;28;20050;-69
2024/01/15 13:03:39;;;;;;;1999.90;999.90;;;;;;;1.63;100.00;100142.66;10340444;28;20050;-69
2024/01/15 13:08:42;;;;;;;1999.90;999.90;;;;;;;1.84;100.00;100146.28;10323252;28;20066;-69
2024/01/15 13:13:44;;;;;;;1999.90;999.90;;;;;;;1.70;100.00;100153.63;10338819;28;20053;-69
2024/01/15 13:18:47;;;;;;;1999.90;999.90;;;;;;;1.46;100.00;100158.66;10340041;28;20125;-69
2024/01/15 13:23:50;;;;;;;1999.90;999.90;;;;;;;1.52;100.00;100175.69;10339557;28;20504;-69
2024/01/15 13:28:54;;;;;;;1999.90;999.90;;;;;;;1.78;100.00;100195.53;10338477;28;20061;-69
2024/01/15 13:33:56;;;;;;;1999.90;999.90;;;;;;;1.74;100.00;100193.94;10339635;28;20072;-69
2024/01/15 13:38:59;;;;;;;1999.90;999.90;;;;;;;1.46;100.00;100163.81;10339237;28;20078;-69
2024/01/15 13:44:01;;;;;;;1999.90;999.90;;;;;;;1.36;100.00;100171.84;10337731;28;20581;-70
2024/01/15 13:49:05;;;;;;;1999.90;999.90;;;;;;;1.66;100.00;100177.81;10338653;28;20054;-70
2024/01/15 13:54:08;;;;;;;1999.90;999.90;;;;;;;1.41;100.00;100181.16;10338513;28;20050;-70
2024/01/15 13:59:11;;;;;;;1999.90;999.90;;;;;;;1.19;100.00;100182.66;10338480;28;20133;-70
2024/01/15 14:04:14;;;;;;;1999.90;999.90;;;;;;;1.48;100.00;100187.81;10338096;28;20489;-70
2024/01/15 14:09:16;;;;;;;1999.90;999.90;;;;;;;1.40;100.00;100186.38;10338265;28;20058;-70
2024/01/15 14:14:19;;;;;;;1999.90;999.90;;;;;;;1.16;100.00;100195.63;10337575;28;20379;-70
2024/01/15 14:19:22;;;;;;;1999.90;999.90;;;;;;;1.11;100.00;100194.03;10337641;28;20054;-70
2024/01/15 14:24:25;;;;;;;1999.90;999.90;;;;;;;1.20;100.00;100199.84;10336173;28;20081;-70
2024/01/15 14:29:27;;;;;;;1999.90;999.90;;;;;;;1.28;100.00;100219.34;10336362;28;20125;-70
2024/01/15 14:34:30;;;;;;;1999.90;999.90;;;;;;;1.04;100.00;100230.34;10337014;28;20126;-70
2024/01/15 14:39:34;;;;;;;1999.90;999.90;;;;;;;1.17;100.00;100244.59;10335937;28;20089;-70
2024/01/15 14:44:38;;;;;;;1999.90;999.90;;;;;;;1.08;100.00;100268.06;10336877;28;20096;-70
2024/01/15 14:49:40;;;;;;;1999.90;999.90;;;;;;;1.13;100.00;100261.03;10335235;28;20490;-70
2024/01/15 14:54:43;;;;;;;1999.90;999.90;;;;;;;1.27;100.00;100256.34;10336007;28;20050;-70
2024/01/15 14:59:46;;;;;;;1999.90;999.90;;;;;;;1.11;100.00;100263.66;10335936;28;20046;-70
2024/01/15 15:04:48;;;;;;;1999.90;999.90;;;;;;;1.17;100.00;100282.44;10319005;28;20046;-70
2024/01/15 15:09:51;;;;;;;1999.90;999.90;;;;;;;1.25;100.00;100286.47;10335847;28;20406;-70
2024/01/15 15:14:54;;;;;;;1999.90;999.90;;;;;;;1.23;100.00;100290.84;10334677;28;20078;-70
2024/01/15 15:20:09;;;;;;;1999.90;999.90;;;;;;;1.22;100.00;100286.56;10334626;28;20508;-70
2024/01/15 15:25:12;;;;;;;1999.90;999.90;;;;;;;1.10;100.00;100294.63;10334356;28;20054;-70
2024/01/15 15:30:15;;;;;;;1999.90;999.90;;;;;;;1.13;100.00;100291.13;10334809;28;20406;-70
2024/01/15 15:35:17;;;;;;;1999.90;999.90;;;;;;;1.02;100.00;100306.88;10333459;28;20054;-70
2024/01/15 15:40:20;;;;;;;1999.90;999.90;;;;;;;1.08;100.00;100309.31;10334558;28;20482;-70
2024/01/15 15:45:23;;;;;;;1999.90;999.90;;;;;;;1.13;100.00;100306.59;10334387;28;20133;-70
2024/01/15 15:50:25;;;;;;;1999.90;999.90;;;;;;;1.03;100.00;100313.75;10332887;28;20482;-70
2024/01/15 15:55:29;;;;;;;1999.90;999.90;;;;;;;0.77;100.00;100311.81;10333631;28;20046;-70
2024/01/15 16:00:31;;;;;;;1999.90;999.90;;;;;;;0.73;100.00;100313.63;10334037;28;20514;-70
2024/01/15 16:05:34;;;;;;;1999.90;999.90;;;;;;;0.80;100.00;100325.47;10332999;28;20042;-70
2024/01/15 16:10:51;;;;;;;1999.90;999.90;;;;;;;0.78;100.00;100322.06;10333537;28;20498;-70
2024/01/15 16:15:54;;;;;;;1999.90;999.90;;;;;;;0.76;100.00;100328.13;10333534;28;20379;-70
2024/01/15 16:21:17;;;;;;;1999.90;999.90;;;;;;;0.78;100.00;100334.13;10334547;28;20054;-70
2024/01/15 16:26:39;;;;;;;1999.90;999.90;;;;;;;0.90;100.00;100363.00;10333163;28;20046;-70
2024/01/15 16:31:43;;;;;;;1999.90;999.90;;;;;;;0.80;100.00;100361.53;10333457;28;20113;-70
2024/01/15 16:36:45;;;;;;;1999.90;999.90;;;;;;;0.88;100.00;100382.81;10333461;28;20085;-69
2024/01/15 16:41:48;;;;;;;1999.90;999.90;;;;;;;0.92;100.00;100378.44;10333366;28;20109;-70
2024/01/15 16:46:50;;;;;;;1999.90;999.90;;;;;;;0.91;100.00;100385.34;10332003;28;20510;-70
2024/01/15 16:51:52;;;;;;;1999.90;999.90;;;;;;;1.13;100.00;100392.53;10333175;28;20054;-70
2024/01/15 16:56:55;;;;;;;1999.90;999.90;;;;;;;0.95;100.00;100400.72;10315512;28;20489;-70
2024/01/15 17:01:58;;;;;;;1999.90;999.90;;;;;;;0.82;100.00;100407.91;10335044;28;20078;-70
2024/01/15 17:07:00;;;;;;;1999.90;999.90;;;;;;;0.70;100.00;100416.75;10340236;28;20057;-70
2024/01/15 17:12:04;;;;;;;1999.90;999.90;;;;;;;0.74;100.00;100431.28;10339080;28;20394;-70
2024/01/15 17:17:06;;;;;;;1999.90;999.90;;;;;;;0.77;100.00;100427.78;10340098;28;20130;-70
2024/01/15 17:22:09;;;;;;;1999.90;999.90;;;;;;;0.58;100.00;100419.63;10339751;28;20058;-70
2024/01/15 17:27:12;;;;;;;1999.90;999.90;;;;;;;0.50;100.00;100445.53;10338646;28;20050;-70
2024/01/15 17:32:15;;;;;;;1999.90;999.90;;;;;;;0.43;100.00;100442.25;10339899;28;20050;-70
2024/01/15 17:37:17;;;;;;;1999.90;999.90;;;;;;;0.37;100.00;100455.25;10339352;28;20046;-70
2024/01/15 17:42:19;;;;;;;1999.90;999.90;;;;;;;0.36;100.00;100454.41;10337985;28;20084;-70
2024/01/15 17:47:22;;;;;;;1999.90;999.90;;;;;;;0.43;100.00;100465.41;10338788;28;20046;-70
2024/01/15 17:52:24;;;;;;;1999.90;999.90;;;;;;;0.48;100.00;100476.47;10338717;28;20057;-70
2024/01/15 17:57:27;;;;;;;1999.90;999.90;;;;;;;0.57;100.00;100490.03;10338305;28;20500;-70
2024/01/15 18:02:30;;;;;;;1999.90;999.90;;;;;;;0.66;100.00;100479.56;10338174;28;20513;-70
2024/01/15 18:07:32;;;;;;;1999.90;999.90;;;;;;;0.59;100.00;100486.56;10336984;28;20061;-70
2024/01/15 18:12:36;;;;;;;1999.90;999.90;;;;;;;0.72;100.00;100493.16;10336723;28;20055;-69
2024/01/15 18:17:39;;;;;;;1999.90;999.90;;;;;;;0.47;100.00;100491.97;10336445;28;20050;-70
2024/01/15 18:22:41;;;;;;;1999.90;999.90;;;;;;;0.47;100.00;100516.00;10336599;28;20082;-70
2024/01/15 18:27:44;;;;;;;1999.90;999.90;;;;;;;0.58;100.00;100508.06;10337445;28;20053;-70
2024/01/15 18:32:46;;;;;;;1999.90;999.90;;;;;;;0.59;100.00;100509.75;10337118;28;20046;-70
2024/01/15 18:37:49;;;;;;;1999.90;999.90;;;;;;;0.59;100.00;100519.19;10337478;28;20078;-70
2024/01/15 18:42:51;;;;;;;1999.90;999.90;;;;;;;0.51;100.00;100515.06;10336077;28;20056;-70
2024/01/15 18:47:54;;;;;;;1999.90;999.90;;;;;;;0.49;100.00;100523.72;10336519;28;20046;-70
2024/01/15 18:52:56;;;;;;;1999.90;999.90;;;;;;;0.43;100.00;100534.13;10336273;28;20517;-70
2024/01/15 18:57:59;;;;;;;1999.90;999.90;;;;;;;0.38;100.00;100539.34;10336000;28;20042;-70
2024/01/15 19:03:02;;;;;;;1999.90;999.90;;;;;;;0.41;100.00;100541.88;10336052;28;20116;-70
2024/01/15 19:08:05;;;;;;;1999.90;999.90;;;;;;;0.48;100.00;100551.19;10334449;28;20406;-70
2024/01/15 19:13:10;;;;;;;1999.90;999.90;;;;;;;0.76;100.00;100571.25;10335695;28;20054;-70
2024/01/15 19:18:13;;;;;;;1999.90;999.90;;;;;;;0.79;100.00;100581.50;10335285;28;20512;-70
2024/01/15 19:23:16;;;;;;;1999.90;999.90;;;;;;;1.25;100.00;100587.41;10335054;28;20489;-70
2024/01/15 19:28:18;;;;;;;1999.90;999.90;;;;;;;0.76;100.00;100583.28;10334794;28;20046;-70
2024/01/15 19:33:21;;;;;;;1999.90;999.90;;;;;;;0.62;100.00;100586.97;10334746;28;20141;-70
2024/01/15 19:38:24;;;;;;;1999.90;999.90;;;;;;;0.59;100.00;100599.06;10334760;28;20120;-70
2024/01/15 19:43:26;;;;;;;1999.90;999.90;;;;;;;0.53;100.00;100605.19;10334609;28;20050;-70
2024/01/15 19:48:29;;;;;;;1999.90;999.90;;;;;;;0.54;100.00;100606.91;10334200;28;20055;-70
2024/01/15 19:53:31;;;;;;;1999.90;999.90;;;;;;;0.71;100.00;100606.56;10334357;28;20142;-70
2024/01/15 19:58:35;;;;;;;1999.90;999.90;;;;;;;0.66;100.00;100623.84;10333037;28;20050;-70
2024/01/15 20:03:38;;;;;;;1999.90;999.90;;;;;;;0.57;100.00;100629.16;10317195;28;20061;-70
2024/01/15 20:08:44;;;;;;;1999.90;999.90;;;;;;;0.55;100.00;100618.88;10333875;28;20528;-70
2024/01/15 20:13:48;;;;;;;1999.90;999.90;;;;;;;0.60;100.00;100622.22;10332736;28;20054;-70
2024/01/15 20:18:50;;;;;;;1999.90;999.90;;;;;;;0.48;100.00;100625.88;10332423;28;20100;-70
2024/01/15 20:23:53;;;;;;;1999.90;999.90;;;;;;;0.40;100.00;100650.09;10333388;28;20054;-70
2024/01/15 20:29:03;;;;;;;1999.90;999.90;;;;;;;0.34;100.00;100654.47;10333557;28;20141;-70
2024/01/15 20:34:06;;;;;;;1999.90;999.90;;;;;;;0.39;100.00;100643.22;10333470;28;20058;-70
2024/01/15 20:39:09;;;;;;;1999.90;999.90;;;;;;;0.44;100.00;100636.25;10339073;28;20046;-70
2024/01/15 20:44:11;;;;;;;1999.90;999.90;;;;;;;0.43;100.00;100643.16;10341360;28;20129;-70
2024/01/15 20:49:14;;;;;;;1999.90;999.90;;;;;;;0.34;100.00;100657.03;10341101;28;20078;-70
2024/01/15 20:54:16;;;;;;;1999.90;999.90;;;;;;;0.27;100.00;100654.59;10340918;28;20055;-70
2024/01/15 20:59:19;;;;;;;1999.90;999.90;;;;;;;0.40;100.00;100650.94;10340584;28;20058;-70
2024/01/15 21:04:22;;;;;;;1999.90;999.90;;;;;;;0.44;100.00;100664.59;10339461;28;20054;-70
2024/01/15 21:09:24;;;;;;;1999.90;999.90;;;;;;;0.30;100.00;100668.28;10340071;28;20569;-70
2024/01/15 21:14:26;;;;;;;1999.90;999.90;;;;;;;0.22;100.00;100670.16;10340146;28;20050;-70
2024/01/15 21:19:29;;;;;;;1999.90;999.90;;;;;;;0.34;100.00;100680.22;10339803;28;20501;-70
2024/01/15 21:24:31;;;;;;;1999.90;999.90;;;;;;;0.19;100.00;100690.78;10346351;23;20054;-70
2024/01/15 21:29:34;;;;;;;1999.90;999.90;;;;;;;0.22;100.00;100693.31;10338822;28;20133;-70
2024/01/15 21:34:36;;;;;;;1999.90;999.90;;;;;;;0.25;100.00;100694.97;10338143;28;20096;-70
2024/01/15 21:39:42;;;;;;;1999.90;999.90;;;;;;;0.33;100.00;100704.28;10338360;28;20050;-70
2024/01/15 21:44:45;;;;;;;1999.90;999.90;;;;;;;0.21;100.00;100709.63;10339052;28;20513;-70
2024/01/15 21:49:47;;;;;;;1999.90;999.90;;;;;;;0.19;100.00;100695.94;10338695;28;20089;-70
2024/01/15 21:54:50;;;;;;;1999.90;999.90;;;;;;;0.24;100.00;100703.59;10337575;28;20076;-70